createdAt,value
2022-11-20T05:00:35.349Z,16.40
2022-11-20T05:11:40.224Z,10.80
2022-11-20T05:22:40.109Z,13.10
2022-11-20T05:33:39.964Z,10.50
2022-11-20T05:44:39.847Z,11.70
2022-11-20T05:55:39.735Z,9.10
2022-11-20T06:06:39.624Z,11.40
2022-11-20T06:17:39.494Z,9.90
2022-11-20T06:28:39.368Z,7.80
2022-11-20T06:39:39.220Z,8.60
2022-11-20T06:50:39.099Z,8.80
2022-11-20T07:01:38.980Z,11.10
2022-11-20T07:12:38.883Z,10.40
2022-11-20T07:23:38.759Z,10.30
2022-11-20T07:34:38.620Z,8.50
2022-11-20T07:45:38.489Z,9.90
2022-11-20T07:56:38.376Z,9.90
2022-11-20T08:07:38.292Z,12.80
2022-11-20T08:18:38.129Z,11.40
2022-11-20T08:29:38.025Z,10.90
2022-11-20T08:40:37.871Z,13.00
2022-11-20T08:51:37.741Z,10.10
2022-11-20T09:02:37.634Z,10.60
2022-11-20T09:13:37.488Z,12.90
2022-11-20T09:24:37.365Z,13.30
2022-11-20T09:35:37.262Z,14.20
2022-11-20T09:46:37.423Z,15.30
2022-11-20T09:57:37.024Z,16.60
2022-11-20T10:08:36.873Z,15.60
2022-11-20T10:19:36.738Z,19.20
2022-11-20T10:30:36.619Z,14.40
2022-11-20T10:41:37.270Z,20.10
2022-11-20T10:52:36.400Z,17.20
2022-11-20T11:03:36.309Z,16.10
2022-11-20T11:14:36.115Z,17.60
2022-11-20T11:25:36.986Z,14.30
2022-11-20T11:36:35.863Z,13.80
2022-11-20T11:47:35.770Z,13.10
2022-11-20T11:58:35.644Z,9.50
2022-11-20T12:09:35.507Z,11.10
2022-11-20T12:20:35.374Z,10.60
2022-11-20T12:31:35.254Z,7.80
2022-11-20T12:42:35.122Z,8.00
2022-11-20T12:53:35.019Z,5.20
2022-11-20T13:04:34.884Z,3.00
2022-11-20T13:15:34.771Z,3.50
2022-11-20T13:26:34.624Z,3.00
2022-11-20T13:37:34.492Z,4.20
2022-11-20T13:48:34.366Z,3.00
2022-11-20T13:59:34.249Z,3.40
2022-11-20T14:10:34.116Z,1.70
2022-11-20T14:21:34.117Z,1.30
2022-11-20T14:32:33.925Z,1.10
2022-11-20T14:43:33.775Z,1.80
2022-11-20T14:54:33.621Z,1.30
2022-11-20T15:05:33.500Z,1.70
2022-11-20T15:16:33.375Z,1.40
2022-11-20T15:27:33.269Z,1.40
2022-11-20T15:38:33.126Z,1.60
2022-11-20T15:49:32.997Z,2.50
2022-11-20T16:00:32.872Z,1.80
2022-11-20T16:11:32.747Z,2.10
2022-11-20T16:22:32.679Z,1.40
2022-11-20T16:33:32.511Z,1.70
2022-11-20T16:44:32.377Z,1.80
2022-11-20T16:55:32.248Z,1.60
2022-11-20T17:06:32.126Z,1.70
2022-11-20T17:17:31.999Z,2.50
2022-11-20T17:28:31.877Z,2.70
2022-11-20T17:39:31.771Z,1.90
2022-11-20T17:50:31.658Z,1.90
2022-11-20T18:01:31.590Z,2.60
2022-11-20T18:12:31.384Z,2.10
2022-11-20T18:23:31.266Z,1.70
2022-11-20T18:34:31.136Z,1.80
2022-11-20T18:45:31.017Z,1.60
2022-11-20T18:56:30.893Z,1.20
2022-11-20T19:07:30.796Z,1.80
2022-11-20T19:18:30.645Z,1.40
2022-11-20T19:29:30.516Z,1.40
2022-11-20T19:40:30.385Z,1.30
2022-11-20T19:51:30.288Z,1.60
2022-11-20T20:02:30.138Z,1.80
2022-11-20T20:13:30.011Z,1.60
2022-11-20T20:24:29.890Z,2.00
2022-11-20T20:35:29.781Z,1.60
2022-11-20T20:46:29.637Z,1.60
2022-11-20T20:57:29.527Z,1.70
2022-11-20T21:08:29.393Z,1.60
2022-11-20T21:19:29.269Z,1.40
2022-11-20T21:30:29.141Z,1.40
2022-11-20T21:41:29.018Z,1.40
2022-11-20T21:52:28.904Z,2.00
